createdAt,value
2022-08-07T00:00:24.972Z,12.10
2022-08-07T00:02:53.467Z,12.10
2022-08-07T00:05:20.714Z,12.00
2022-08-07T00:07:50.701Z,12.00
2022-08-07T00:10:29.645Z,12.00
2022-08-07T00:13:00.173Z,12.10
2022-08-07T00:15:38.170Z,12.10
2022-08-07T00:18:18.930Z,12.10
2022-08-07T00:20:47.748Z,12.10
2022-08-07T00:23:14.893Z,12.00
2022-08-07T00:25:45.789Z,11.90
2022-08-07T00:28:22.018Z,11.80
2022-08-07T00:30:48.762Z,11.90
2022-08-07T00:33:15.532Z,11.80
2022-08-07T00:35:45.400Z,11.80
2022-08-07T00:38:15.758Z,11.70
2022-08-07T00:40:58.251Z,11.70
2022-08-07T00:43:59.418Z,11.60
2022-08-07T00:46:11.396Z,11.60
2022-08-07T00:48:42.372Z,11.60
2022-08-07T00:51:09.210Z,11.50
2022-08-07T00:53:38.918Z,11.30
2022-08-07T00:56:17.221Z,11.30
2022-08-07T00:58:47.146Z,11.30
2022-08-07T01:01:16.301Z,11.20
2022-08-07T01:03:56.508Z,11.10
2022-08-07T01:06:27.492Z,11.10
2022-08-07T01:08:55.637Z,11.00
2022-08-07T01:12:09.584Z,10.90
2022-08-07T01:14:09.656Z,10.90
2022-08-07T01:16:36.944Z,10.90
2022-08-07T01:19:04.628Z,10.90
2022-08-07T01:21:41.434Z,10.80
2022-08-07T01:24:09.726Z,10.80
2022-08-07T01:26:36.703Z,10.80
2022-08-07T01:29:03.846Z,10.80
2022-08-07T01:31:42.526Z,10.70
2022-08-07T01:34:14.218Z,10.60
2022-08-07T01:36:40.888Z,10.60
2022-08-07T01:39:10.285Z,10.50
2022-08-07T01:41:38.057Z,10.60
2022-08-07T01:44:05.124Z,10.50
2022-08-07T01:46:31.693Z,10.50
2022-08-07T01:48:59.991Z,10.50
2022-08-07T01:52:04.109Z,10.50
2022-08-07T01:54:33.146Z,10.40
2022-08-07T01:58:00.971Z,10.40
2022-08-07T02:00:13.037Z,10.40
2022-08-07T02:03:19.248Z,10.40
2022-08-07T02:05:59.470Z,10.40
2022-08-07T02:08:26.760Z,10.40
2022-08-07T02:10:55.125Z,10.40
2022-08-07T02:13:46.991Z,10.40
2022-08-07T02:16:12.013Z,10.40
2022-08-07T02:18:46.889Z,10.40
2022-08-07T02:21:16.295Z,10.40
2022-08-07T02:23:43.238Z,10.40
2022-08-07T02:26:33.082Z,10.50
2022-08-07T02:28:57.923Z,10.50
2022-08-07T02:31:28.682Z,10.40
2022-08-07T02:34:03.135Z,10.40
2022-08-07T02:36:33.163Z,10.40
2022-08-07T02:39:01.232Z,10.30
2022-08-07T02:41:33.657Z,10.20
2022-08-07T02:44:04.102Z,10.10
2022-08-07T02:46:31.744Z,10.10
2022-08-07T02:48:58.365Z,10.10
2022-08-07T02:51:41.872Z,10.10
2022-08-07T02:54:09.580Z,10.10
2022-08-07T02:56:36.157Z,10.10
2022-08-07T02:59:03.924Z,10.10
2022-08-07T03:01:35.791Z,10.00
2022-08-07T03:04:07.616Z,10.00
2022-08-07T03:06:38.907Z,10.00
2022-08-07T03:09:05.843Z,10.00
2022-08-07T03:11:32.987Z,10.00
2022-08-07T03:14:06.049Z,10.00
2022-08-07T03:16:32.867Z,9.90
2022-08-07T03:18:59.722Z,10.00
2022-08-07T03:21:27.811Z,9.90
2022-08-07T03:24:19.927Z,9.90
2022-08-07T03:26:51.043Z,9.90
2022-08-07T03:29:24.670Z,9.90
2022-08-07T03:31:54.266Z,9.80
2022-08-07T03:34:22.859Z,9.70
2022-08-07T03:36:53.906Z,9.70
2022-08-07T03:39:46.405Z,9.70
2022-08-07T03:42:07.280Z,9.70
2022-08-07T03:44:35.770Z,9.70
2022-08-07T03:47:13.362Z,9.60
2022-08-07T03:49:41.644Z,9.60
2022-08-07T03:52:22.283Z,9.60
2022-08-07T03:54:54.776Z,9.50
2022-08-07T03:58:34.082Z,9.60
2022-08-07T04:00:12.083Z,9.60
2022-08-07T04:02:41.175Z,9.60
2022-08-07T04:05:08.144Z,9.60
2022-08-07T04:07:36.197Z,9.60
2022-08-07T04:10:15.657Z,9.70
2022-08-07T04:12:45.843Z,9.80
2022-08-07T04:15:13.885Z,10.20
2022-08-07T04:18:30.964Z,10.80
2022-08-07T04:20:29.044Z,11.40
2022-08-07T04:23:01.172Z,11.90
2022-08-07T04:25:29.325Z,12.40
2022-08-07T04:27:59.347Z,12.80
2022-08-07T04:30:39.473Z,13.40
2022-08-07T04:33:11.422Z,14.10
2022-08-07T04:35:42.172Z,14.90
2022-08-07T04:38:09.022Z,15.60
2022-08-07T04:40:44.113Z,16.30
2022-08-07T04:43:19.747Z,16.70
2022-08-07T04:46:00.968Z,17.50
2022-08-07T04:48:44.705Z,18.00
2022-08-07T04:51:15.341Z,18.30
2022-08-07T04:54:05.683Z,18.70
2022-08-07T04:58:10.443Z,19.10
2022-08-07T05:00:14.184Z,19.50
2022-08-07T05:02:37.972Z,19.90
2022-08-07T05:05:51.709Z,20.40
2022-08-07T05:08:00.737Z,21.00
2022-08-07T05:10:35.245Z,21.50
2022-08-07T05:14:44.362Z,22.10
2022-08-07T05:15:51.160Z,22.60
2022-08-07T05:18:23.940Z,22.80
2022-08-07T05:20:51.049Z,23.10
2022-08-07T05:23:20.143Z,23.60
2022-08-07T05:26:13.770Z,24.30
2022-08-07T05:28:48.406Z,24.80
2022-08-07T05:31:17.527Z,25.20
2022-08-07T05:34:00.993Z,25.60
2022-08-07T05:36:32.135Z,25.50
2022-08-07T05:40:05.793Z,25.70
2022-08-07T05:42:02.613Z,25.80
2022-08-07T05:44:30.521Z,26.00
2022-08-07T05:46:57.098Z,25.60
2022-08-07T05:49:23.713Z,25.30
2022-08-07T05:51:50.288Z,25.30
2022-08-07T05:54:44.642Z,25.30
2022-08-07T05:57:03.598Z,25.30
2022-08-07T05:59:30.229Z,25.00
2022-08-07T06:02:16.833Z,24.90
2022-08-07T06:04:50.804Z,25.00
2022-08-07T06:07:23.084Z,25.00
2022-08-07T06:10:06.107Z,25.50
2022-08-07T06:12:37.876Z,26.00
2022-08-07T06:15:06.094Z,26.30
2022-08-07T06:17:37.953Z,26.30
2022-08-07T06:20:05.550Z,25.90
2022-08-07T06:22:36.874Z,25.70
2022-08-07T06:25:06.236Z,26.00
2022-08-07T06:27:44.045Z,26.30
2022-08-07T06:30:24.230Z,26.50
2022-08-07T06:33:03.739Z,26.50
2022-08-07T06:35:30.700Z,26.60
2022-08-07T06:38:19.316Z,26.90
2022-08-07T06:40:49.810Z,27.20
2022-08-07T06:43:21.601Z,27.50
2022-08-07T06:45:49.117Z,27.70
2022-08-07T06:48:15.718Z,27.80
2022-08-07T06:50:51.480Z,28.20
2022-08-07T06:53:18.809Z,28.00
2022-08-07T06:56:07.590Z,28.20
2022-08-07T07:00:14.547Z,27.80
2022-08-07T07:01:33.177Z,27.80
2022-08-07T07:04:28.450Z,28.20
2022-08-07T07:07:01.090Z,28.40
2022-08-07T07:09:31.352Z,28.50
2022-08-07T07:12:19.670Z,28.40
2022-08-07T07:14:55.788Z,28.90
2022-08-07T07:17:28.813Z,28.80
2022-08-07T07:20:10.514Z,29.20
2022-08-07T07:24:06.609Z,29.30
2022-08-07T07:26:34.318Z,29.30
2022-08-07T07:28:42.422Z,29.40
2022-08-07T07:31:17.347Z,29.80
2022-08-07T07:33:54.900Z,30.20
2022-08-07T07:36:23.622Z,30.80
2022-08-07T07:38:59.798Z,31.10
2022-08-07T07:41:30.886Z,30.90
2022-08-07T07:44:17.258Z,30.80
2022-08-07T07:46:55.877Z,30.80
2022-08-07T07:50:32.477Z,30.80
2022-08-07T07:52:16.391Z,30.90
2022-08-07T07:54:50.757Z,30.80
2022-08-07T07:57:21.049Z,31.20
2022-08-07T08:00:09.189Z,30.60
2022-08-07T08:02:36.072Z,30.30
2022-08-07T08:05:03.147Z,30.00
2022-08-07T08:07:35.818Z,30.00
2022-08-07T08:10:09.045Z,30.00
2022-08-07T08:12:59.129Z,30.40
2022-08-07T08:15:26.926Z,30.60
2022-08-07T08:18:18.074Z,30.70
2022-08-07T08:20:47.870Z,30.70
2022-08-07T08:23:35.355Z,30.80
2022-08-07T08:26:20.866Z,30.70
2022-08-07T08:28:50.060Z,30.50
2022-08-07T08:31:30.160Z,30.10
2022-08-07T08:34:19.012Z,29.70
2022-08-07T08:36:57.675Z,29.40
2022-08-07T08:39:25.194Z,29.10
2022-08-07T08:42:09.275Z,28.60
2022-08-07T08:44:58.397Z,27.70
2022-08-07T08:47:26.422Z,26.90
2022-08-07T08:50:05.485Z,25.70
2022-08-07T08:52:36.295Z,25.40
2022-08-07T08:55:55.143Z,25.40
2022-08-07T08:58:45.108Z,25.30
2022-08-07T09:01:20.969Z,25.30
2022-08-07T09:03:56.743Z,25.60
2022-08-07T09:06:36.472Z,25.60
2022-08-07T09:09:09.700Z,25.60
2022-08-07T09:11:54.504Z,25.70
2022-08-07T09:14:33.084Z,25.50
2022-08-07T09:17:11.024Z,25.60
2022-08-07T09:19:52.942Z,25.10
2022-08-07T09:24:30.994Z,24.80
2022-08-07T09:25:24.337Z,24.60
2022-08-07T09:28:02.888Z,24.60
2022-08-07T09:30:32.948Z,24.80
2022-08-07T09:33:05.309Z,24.90
2022-08-07T09:36:02.674Z,24.70
2022-08-07T09:38:53.716Z,24.50
2022-08-07T09:41:24.000Z,24.50
2022-08-07T09:44:30.128Z,24.50
2022-08-07T09:47:51.624Z,24.40
2022-08-07T09:50:19.462Z,24.40
2022-08-07T09:52:51.800Z,25.00
2022-08-07T09:55:29.553Z,25.20
2022-08-07T09:58:06.641Z,25.20
2022-08-07T10:00:42.127Z,25.60
2022-08-07T10:04:06.407Z,26.00
2022-08-07T10:06:17.704Z,26.30
2022-08-07T10:08:55.410Z,25.80
2022-08-07T10:12:01.555Z,25.60
2022-08-07T10:14:30.464Z,25.10
2022-08-07T10:17:17.066Z,25.00
2022-08-07T10:20:02.180Z,24.60
2022-08-07T10:22:45.336Z,24.80
2022-08-07T10:25:24.647Z,24.90
2022-08-07T10:28:27.688Z,24.70
2022-08-07T10:30:58.693Z,24.90
2022-08-07T10:34:15.117Z,25.10
2022-08-07T10:36:29.359Z,25.10
2022-08-07T10:39:23.029Z,25.30
2022-08-07T10:42:00.382Z,25.20
2022-08-07T10:44:45.125Z,25.00
2022-08-07T10:47:54.495Z,24.80
2022-08-07T10:50:19.242Z,24.80
2022-08-07T10:52:52.862Z,24.90
2022-08-07T10:55:38.667Z,25.20
2022-08-07T10:58:10.969Z,25.50
2022-08-07T11:00:50.439Z,25.80
2022-08-07T11:03:28.096Z,25.70
2022-08-07T11:06:18.412Z,25.60
2022-08-07T11:08:51.732Z,25.40
2022-08-07T11:11:21.616Z,25.40
2022-08-07T11:14:57.132Z,25.40
2022-08-07T11:17:01.777Z,25.40
2022-08-07T11:19:38.778Z,25.30
2022-08-07T11:22:18.831Z,25.20
2022-08-07T11:24:53.796Z,25.40
2022-08-07T11:27:33.514Z,25.50
2022-08-07T11:30:18.461Z,25.20
2022-08-07T11:32:54.382Z,24.90
2022-08-07T11:35:59.549Z,24.80
2022-08-07T11:38:31.797Z,24.80
2022-08-07T11:41:08.240Z,25.00
2022-08-07T11:43:54.943Z,25.30
2022-08-07T11:46:44.507Z,25.30
2022-08-07T11:49:51.563Z,25.30
2022-08-07T11:52:16.183Z,25.50
2022-08-07T11:54:46.444Z,25.40
2022-08-07T11:58:00.092Z,25.40
2022-08-07T12:00:19.530Z,25.50
2022-08-07T12:02:55.574Z,25.80
2022-08-07T12:05:47.367Z,25.60
2022-08-07T12:08:25.801Z,25.30
2022-08-07T12:11:21.413Z,25.00
2022-08-07T12:14:02.100Z,25.10
2022-08-07T12:16:30.593Z,25.00
2022-08-07T12:18:57.446Z,25.10
2022-08-07T12:21:56.005Z,25.00
2022-08-07T12:26:03.422Z,25.10
2022-08-07T12:28:16.204Z,25.20
2022-08-07T12:30:53.085Z,25.30
2022-08-07T12:33:28.084Z,25.30
2022-08-07T12:35:59.063Z,25.40
2022-08-07T12:38:38.466Z,25.50
2022-08-07T12:41:10.269Z,25.80
2022-08-07T12:44:03.357Z,26.00
2022-08-07T12:46:39.965Z,25.90
2022-08-07T12:49:25.478Z,25.90
2022-08-07T12:52:18.255Z,25.90
2022-08-07T12:55:02.837Z,25.60
2022-08-07T12:58:01.118Z,25.60
2022-08-07T13:00:20.964Z,25.50
2022-08-07T13:03:27.483Z,25.60
2022-08-07T13:06:17.198Z,25.80
2022-08-07T13:09:00.319Z,26.10
2022-08-07T13:12:03.405Z,26.30
2022-08-07T13:14:51.431Z,26.00
2022-08-07T13:17:21.224Z,25.50
2022-08-07T13:19:52.718Z,25.50
2022-08-07T13:22:39.969Z,25.30
2022-08-07T13:25:15.404Z,25.30
2022-08-07T13:28:18.756Z,25.30
2022-08-07T13:31:06.640Z,25.20
2022-08-07T13:34:34.220Z,25.40
2022-08-07T13:36:39.748Z,25.50
2022-08-07T13:39:49.466Z,25.50
2022-08-07T13:42:06.312Z,25.60
2022-08-07T13:44:34.718Z,25.50
2022-08-07T13:47:04.775Z,25.60
2022-08-07T13:50:35.585Z,25.90
2022-08-07T13:52:31.780Z,25.80
2022-08-07T13:55:06.339Z,25.70
2022-08-07T13:57:38.027Z,25.90
2022-08-07T14:00:07.737Z,26.00
2022-08-07T14:02:49.162Z,26.10
2022-08-07T14:05:20.164Z,26.10
2022-08-07T14:08:00.707Z,26.20
2022-08-07T14:10:33.744Z,26.20
2022-08-07T14:13:09.077Z,26.30
2022-08-07T14:15:37.030Z,26.00
2022-08-07T14:18:24.284Z,25.90
2022-08-07T14:20:54.656Z,25.90
2022-08-07T14:23:58.891Z,26.00
2022-08-07T14:26:28.165Z,26.10
2022-08-07T14:29:04.303Z,26.00
2022-08-07T14:31:43.107Z,26.10
2022-08-07T14:34:27.182Z,26.00
2022-08-07T14:36:56.612Z,25.80
2022-08-07T14:40:16.779Z,25.70
2022-08-07T14:42:20.412Z,25.80
2022-08-07T14:44:59.542Z,25.90
2022-08-07T14:47:26.639Z,25.70
2022-08-07T14:49:56.940Z,25.80
2022-08-07T14:52:28.009Z,25.90
2022-08-07T14:54:55.918Z,25.90
2022-08-07T14:57:28.939Z,25.90
2022-08-07T15:00:12.253Z,26.00
2022-08-07T15:02:56.858Z,26.10
2022-08-07T15:05:23.808Z,26.00
2022-08-07T15:07:51.985Z,25.90
2022-08-07T15:10:29.850Z,25.80
2022-08-07T15:13:01.039Z,25.80
2022-08-07T15:15:38.659Z,25.80
2022-08-07T15:18:14.525Z,25.80
2022-08-07T15:20:56.078Z,25.90
2022-08-07T15:25:02.927Z,25.90
2022-08-07T15:26:21.285Z,25.90
2022-08-07T15:28:56.605Z,25.80
2022-08-07T15:31:57.706Z,25.80
2022-08-07T15:34:15.095Z,25.70
2022-08-07T15:39:56.865Z,25.60
2022-08-07T15:42:43.933Z,25.50
2022-08-07T15:45:14.409Z,25.50
2022-08-07T15:51:07.929Z,25.40
2022-08-07T15:53:52.137Z,25.40
2022-08-07T15:56:24.747Z,25.40
2022-08-07T15:58:57.122Z,25.20
2022-08-07T16:01:38.359Z,25.30
2022-08-07T16:04:14.596Z,25.30
2022-08-07T16:06:57.345Z,25.20
2022-08-07T16:09:42.941Z,25.10
2022-08-07T16:12:12.031Z,25.00
2022-08-07T16:14:52.078Z,24.80
2022-08-07T16:18:02.108Z,24.90
2022-08-07T16:20:36.952Z,24.80
2022-08-07T16:23:05.370Z,24.80
2022-08-07T16:25:54.046Z,24.80
2022-08-07T16:30:05.492Z,24.90
2022-08-07T16:31:57.071Z,24.80
2022-08-07T16:34:36.394Z,24.80
2022-08-07T16:38:04.608Z,24.80
2022-08-07T16:40:28.199Z,24.80
2022-08-07T16:42:59.247Z,24.80
2022-08-07T16:46:47.196Z,24.60
2022-08-07T16:48:34.313Z,24.50
2022-08-07T16:51:54.054Z,24.50
2022-08-07T16:54:19.446Z,24.40
2022-08-07T16:56:53.346Z,24.40
2022-08-07T16:59:47.053Z,24.40
2022-08-07T17:03:04.787Z,24.30
2022-08-07T17:06:28.501Z,24.20
2022-08-07T17:08:09.182Z,24.20
2022-08-07T17:10:38.695Z,24.10
2022-08-07T17:13:41.428Z,24.20
2022-08-07T17:16:22.391Z,24.20
2022-08-07T17:18:51.711Z,24.20
2022-08-07T17:21:22.769Z,24.10
2022-08-07T17:24:16.103Z,24.10
2022-08-07T17:26:59.759Z,24.00
2022-08-07T17:30:14.631Z,24.00
2022-08-07T17:32:51.863Z,23.90
2022-08-07T17:35:54.799Z,23.90
2022-08-07T17:38:34.245Z,23.80
2022-08-07T17:42:00.698Z,23.70
2022-08-07T17:44:02.320Z,23.70
2022-08-07T17:46:37.894Z,23.60
2022-08-07T17:49:23.820Z,23.60
2022-08-07T17:52:00.861Z,23.50
2022-08-07T17:54:53.870Z,23.40
2022-08-07T17:57:25.023Z,23.40
2022-08-07T18:00:14.025Z,23.30
2022-08-07T18:03:00.855Z,23.20
2022-08-07T18:06:01.813Z,23.10
2022-08-07T18:08:31.025Z,23.00
2022-08-07T18:12:17.545Z,22.90
2022-08-07T18:13:54.383Z,22.70
2022-08-07T18:16:35.029Z,22.60
2022-08-07T18:21:10.311Z,22.50
2022-08-07T18:22:14.839Z,22.30
2022-08-07T18:24:43.681Z,22.20
2022-08-07T18:27:38.187Z,22.00
2022-08-07T18:30:31.691Z,21.90
2022-08-07T18:33:12.170Z,21.80
2022-08-07T18:35:53.634Z,21.60
2022-08-07T18:38:55.246Z,21.50
2022-08-07T18:41:44.619Z,21.50
2022-08-07T18:44:31.572Z,21.40
2022-08-07T18:47:01.540Z,21.30
2022-08-07T18:50:31.269Z,21.20
2022-08-07T18:52:53.988Z,21.10
2022-08-07T18:55:42.319Z,20.90
2022-08-07T18:58:38.249Z,20.80
2022-08-07T19:01:06.091Z,20.70
2022-08-07T19:03:37.930Z,20.60
2022-08-07T19:06:05.271Z,20.50
2022-08-07T19:08:41.696Z,20.40
2022-08-07T19:11:35.875Z,20.30
2022-08-07T19:14:08.164Z,20.20
2022-08-07T19:17:07.765Z,20.10
2022-08-07T19:19:48.985Z,20.00
2022-08-07T19:22:31.150Z,19.90
2022-08-07T19:24:58.744Z,19.90
2022-08-07T19:28:29.075Z,19.80
2022-08-07T19:31:05.189Z,19.70
2022-08-07T19:33:10.198Z,19.50
2022-08-07T19:35:40.111Z,19.50
2022-08-07T19:38:17.031Z,19.40
2022-08-07T19:40:50.370Z,19.30
2022-08-07T19:43:43.933Z,19.20
2022-08-07T19:46:16.105Z,19.10
2022-08-07T19:48:54.076Z,19.00
2022-08-07T19:51:24.249Z,18.90
2022-08-07T19:54:32.757Z,18.80
2022-08-07T19:57:51.327Z,18.80
2022-08-07T19:59:42.659Z,18.70
2022-08-07T20:02:15.303Z,18.70
2022-08-07T20:04:48.899Z,18.60
2022-08-07T20:07:23.884Z,18.60
2022-08-07T20:10:37.168Z,18.50
2022-08-07T20:12:50.437Z,18.60
2022-08-07T20:15:21.852Z,18.50
2022-08-07T20:18:01.360Z,18.50
2022-08-07T20:20:30.807Z,18.40
2022-08-07T20:22:59.921Z,18.40
2022-08-07T20:25:27.949Z,18.30
2022-08-07T20:27:58.384Z,18.20
2022-08-07T20:30:33.135Z,18.20
2022-08-07T20:33:00.004Z,18.10
2022-08-07T20:35:36.529Z,18.10
2022-08-07T20:38:21.588Z,18.00
2022-08-07T20:40:51.467Z,18.00
2022-08-07T20:43:22.818Z,17.90
2022-08-07T20:46:25.746Z,17.90
2022-08-07T20:48:37.241Z,17.80
2022-08-07T20:51:09.701Z,17.80
2022-08-07T20:54:04.543Z,17.80
2022-08-07T20:56:25.943Z,17.70
2022-08-07T20:58:53.357Z,17.70
2022-08-07T21:01:21.844Z,17.70
2022-08-07T21:04:07.564Z,17.70
2022-08-07T21:06:37.519Z,17.60
2022-08-07T21:09:13.817Z,17.60
2022-08-07T21:11:50.559Z,17.50
2022-08-07T21:14:31.812Z,17.50
2022-08-07T21:18:01.819Z,17.50
2022-08-07T21:19:51.154Z,17.40
2022-08-07T21:22:28.726Z,17.40
2022-08-07T21:25:11.682Z,17.40
2022-08-07T21:28:03.603Z,17.40
2022-08-07T21:30:44.173Z,17.40
2022-08-07T21:33:13.086Z,17.30
2022-08-07T21:36:06.793Z,17.30
2022-08-07T21:38:28.638Z,17.30
2022-08-07T21:40:58.191Z,17.30
2022-08-07T21:43:55.419Z,17.40
2022-08-07T21:46:31.792Z,17.50
2022-08-07T21:49:04.624Z,17.60
2022-08-07T21:51:54.905Z,17.60
2022-08-07T21:54:31.412Z,17.50
2022-08-07T21:57:01.028Z,17.50
2022-08-07T22:00:05.252Z,17.40
2022-08-07T22:03:05.754Z,17.30
2022-08-07T22:05:45.766Z,17.20
2022-08-07T22:08:18.410Z,17.10
2022-08-07T22:10:45.974Z,17.10
2022-08-07T22:13:13.901Z,17.00
2022-08-07T22:16:44.838Z,17.00
2022-08-07T22:18:44.730Z,17.00
2022-08-07T22:21:14.518Z,16.90
2022-08-07T22:23:59.683Z,16.90
2022-08-07T22:26:28.378Z,16.80
2022-08-07T22:28:57.832Z,16.80
2022-08-07T22:31:59.061Z,16.70
2022-08-07T22:34:35.550Z,16.70
2022-08-07T22:37:09.373Z,16.60
2022-08-07T22:39:53.096Z,16.60
2022-08-07T22:42:25.969Z,16.60
2022-08-07T22:44:58.422Z,16.50
2022-08-07T22:47:28.936Z,16.40
2022-08-07T22:50:20.736Z,16.30
2022-08-07T22:53:15.744Z,16.20
2022-08-07T22:55:43.434Z,16.00
2022-08-07T22:58:16.961Z,15.90
2022-08-07T23:01:06.216Z,15.80
2022-08-07T23:03:58.512Z,15.80
2022-08-07T23:06:41.379Z,15.70
2022-08-07T23:10:04.823Z,15.50
2022-08-07T23:12:34.883Z,15.40
2022-08-07T23:16:04.896Z,15.30
2022-08-07T23:18:16.026Z,15.20
2022-08-07T23:21:06.336Z,15.10
2022-08-07T23:24:06.858Z,15.00
2022-08-07T23:26:30.450Z,14.90
2022-08-07T23:29:16.513Z,14.80
2022-08-07T23:34:18.929Z,14.70
2022-08-07T23:35:19.880Z,14.70
2022-08-07T23:38:01.341Z,14.80
2022-08-07T23:40:34.676Z,14.90
2022-08-07T23:43:16.980Z,14.90
2022-08-07T23:46:03.302Z,14.90
2022-08-07T23:48:43.331Z,14.90
2022-08-07T23:53:01.775Z,14.70
2022-08-07T23:54:35.922Z,14.60
2022-08-07T23:57:13.202Z,14.60
